Portada
METAR-TAF:

METAR-TAF

Aeroports :

Sint Maarten, Antilles Neerlandeses

latitud: 18-03N, longitud: 063-07W, altitud: 4 m

Observació

L'informe es va fer fa 1 hora i 7 minuts, a les 15:00 UTC
Vent 14 kt del Est/Nord-Est amb ràfegues de 26 kt
Temperatura 28°C
Humitat 62%
Pressió 1020 hPa
Visibilitat 10 km o més
Núvols disperses a una alçada de 1900 ft

METAR: TNCM 181500Z 07014G26KT 9999 SCT019 28/20 Q1020 NOSIG

Hora: 12:07 (16:07 UTC)

Pronòstic

L'informe es va fer fa 4 hores i 27 minuts, a les 11:40 UTC
Pronòstic vàlid del 18 a les 12 UTC al 19 a les 12 UTC
Vent 17 kt del Est amb ràfegues de 26 kt
Visibilitat: 10 km
Escasses núvols a una alçada de 1600 ft
Núvols disperses a una alçada de 2500 ft
A partir de les 18 a les 2200 UTC
Vent 13 kt del Est
Visibilitat: 10 km
Núvols disperses a una alçada de 1800 ft
Núvols disperses a una alçada de 2200 ft
xàfecs en les proximitats

TAF: TNCM 181140Z 1812/1912 08017G26KT P6SM FEW016 SCT025 FM182200 08013KT P6SM VCSH SCT018 SCT022

Observacions i pronòstics meteorològics de més de 4000 aeroports (METAR i TAF).

Les estacions disponibles són els punts grocs i vermells al mapa.

Posi el ratolí al punt desitjat per veure el nom de l'estació.

Feu clic per veure les observacions i els pronòstics meteorològics.

Per canviar el mapa: feu clic els botons verds amb una creu de color negre per apropar; al botó verd amb un guió per allunyar la imatge; o en les fletxes verdes per a mapes adjacents.


METAR-TAF: